Time;durP1;ratioP1;P1;durP2;ratioP2;P2;SDS_P1;SDS_P2;PMS_P1;PMS_P2;Temp;Humidity;BMP_temperature;BMP_pressure;BME280_temperature;BME280_humidity;BME280_pressure;Samples;Min_cycle;Max_cycle;Signal;HPM_P1;HPM_P2
2022/09/11 00:00:53;;;;;;;7.78;4.95;;;19.10;94.20;;;;;;10443172;28;20498;-65
2022/09/11 00:05:54;;;;;;;7.55;5.30;;;19.10;94.20;;;;;;10440274;28;20021;-64
2022/09/11 00:10:54;;;;;;;5.88;4.72;;;19.10;94.20;;;;;;10439115;28;20087;-65
2022/09/11 00:15:55;;;;;;;5.28;4.55;;;19.00;94.20;;;;;;10443008;28;20498;-63
2022/09/11 00:20:57;;;;;;;6.60;4.68;;;19.10;94.20;;;;;;10442651;28;20102;-64
2022/09/11 00:26:02;;;;;;;6.43;4.60;;;19.00;94.20;;;;;;10440387;28;20539;-63
2022/09/11 00:31:06;;;;;;;7.78;5.45;;;19.00;94.20;;;;;;10439908;28;20552;-64
2022/09/11 00:36:11;;;;;;;8.05;4.88;;;19.00;94.20;;;;;;10437965;28;20075;-65
2022/09/11 00:41:18;;;;;;;10.52;5.32;;;19.00;94.20;;;;;;10441353;28;20199;-64
2022/09/11 00:46:20;;;;;;;7.05;5.30;;;19.00;94.20;;;;;;10439811;28;20469;-63
2022/09/11 00:51:25;;;;;;;7.65;4.90;;;18.90;94.20;;;;;;10438343;28;20060;-62
2022/09/11 00:56:30;;;;;;;6.63;4.85;;;18.90;94.20;;;;;;10439840;28;20040;-63
2022/09/11 01:01:32;;;;;;;6.20;4.72;;;18.90;94.20;;;;;;10433496;28;20056;-63
2022/09/11 01:06:32;;;;;;;7.65;5.05;;;18.90;94.20;;;;;;10442827;28;20033;-63
2022/09/11 01:11:54;;;;;;;6.97;5.03;;;18.90;94.20;;;;;;10439875;28;20040;-63
2022/09/11 01:17:24;;;;;;;9.88;5.00;;;18.80;94.20;;;;;;10436538;28;20025;-63
2022/09/11 01:22:25;;;;;;;7.90;5.40;;;18.90;94.20;;;;;;10445197;28;20461;-63
2022/09/11 01:27:26;;;;;;;5.78;4.95;;;18.80;94.10;;;;;;10446630;28;20021;-63
2022/09/11 01:32:58;;;;;;;7.53;5.07;;;18.80;94.10;;;;;;10448276;28;20033;-63
2022/09/11 01:38:07;;;;;;;9.23;5.30;;;18.80;94.10;;;;;;10446220;28;20064;-64
2022/09/11 01:43:12;;;;;;;8.45;5.07;;;18.70;94.10;;;;;;10449569;28;20685;-66
2022/09/11 01:48:18;;;;;;;6.72;5.32;;;18.80;94.10;;;;;;10448652;28;20039;-63
2022/09/11 01:53:24;;;;;;;7.57;5.50;;;18.70;94.10;;;;;;10444198;28;20036;-66
2022/09/11 01:58:30;;;;;;;8.25;5.50;;;18.70;94.10;;;;;;10445531;28;20055;-63
2022/09/11 02:03:36;;;;;;;7.30;4.90;;;18.70;94.10;;;;;;10447003;28;20017;-64
2022/09/11 02:08:50;;;;;;;9.88;5.90;;;18.90;94.40;;;;;;10444869;28;20025;-63
2022/09/11 02:14:04;;;;;;;7.80;5.20;;;18.70;94.10;;;;;;10444302;28;20121;-62
2022/09/11 02:19:08;;;;;;;8.63;5.70;;;18.70;94.10;;;;;;10444880;28;20044;-62
2022/09/11 02:24:09;;;;;;;7.07;4.80;;;18.60;94.10;;;;;;10445695;28;20036;-63
2022/09/11 02:29:11;;;;;;;7.18;5.20;;;18.60;94.10;;;;;;10446113;28;21528;-63
2022/09/11 02:34:13;;;;;;;9.48;5.20;;;18.60;94.10;;;;;;10445841;28;20132;-62
2022/09/11 02:39:51;;;;;;;10.23;5.53;;;18.60;94.10;;;;;;10442449;28;20018;-63
2022/09/11 02:45:30;;;;;;;8.02;5.40;;;18.60;94.00;;;;;;10443208;28;20032;-63
2022/09/11 02:51:04;;;;;;;9.30;5.68;;;18.50;94.00;;;;;;10442362;28;20031;-63
2022/09/11 02:56:13;;;;;;;9.55;5.35;;;18.50;94.00;;;;;;10441728;28;20032;-63
2022/09/11 03:01:14;;;;;;;8.60;5.50;;;18.50;94.00;;;;;;10442773;28;20313;-64
2022/09/11 03:06:26;;;;;;;8.00;5.35;;;18.50;94.00;;;;;;10446803;28;20048;-63
2022/09/11 03:11:27;;;;;;;9.45;5.25;;;18.50;94.00;;;;;;10443953;28;20036;-63
2022/09/11 03:16:28;;;;;;;6.63;5.28;;;18.40;94.00;;;;;;10444909;28;20024;-63
2022/09/11 03:21:29;;;;;;;7.47;5.05;;;18.40;94.00;;;;;;10444561;28;20044;-64
2022/09/11 03:26:32;;;;;;;6.50;4.55;;;18.40;93.90;;;;;;10442618;28;20196;-62
2022/09/11 03:31:33;;;;;;;5.70;4.50;;;18.40;93.90;;;;;;10445295;28;20056;-63
2022/09/11 03:36:34;;;;;;;4.72;3.85;;;18.30;93.90;;;;;;10441699;28;20021;-63
2022/09/11 03:41:34;;;;;;;5.18;3.53;;;18.30;93.90;;;;;;10439829;28;20030;-63
2022/09/11 03:46:35;;;;;;;4.78;3.58;;;18.30;93.90;;;;;;10443702;28;20020;-62
2022/09/11 03:51:36;;;;;;;4.80;3.10;;;18.30;93.80;;;;;;10442975;28;20041;-63
2022/09/11 03:56:37;;;;;;;4.28;3.10;;;18.30;93.80;;;;;;10442418;28;20067;-63
2022/09/11 04:01:38;;;;;;;2.80;2.60;;;18.20;93.80;;;;;;10442069;28;20021;-63
2022/09/11 04:06:39;;;;;;;3.65;2.75;;;18.20;93.70;;;;;;10441890;28;20331;-63
2022/09/11 04:11:40;;;;;;;2.95;2.65;;;18.20;94.00;;;;;;10444396;28;20036;-64
2022/09/11 04:16:41;;;;;;;2.97;2.67;;;18.20;93.70;;;;;;10441978;28;20044;-63
2022/09/11 04:21:42;;;;;;;4.38;2.63;;;18.20;93.70;;;;;;10441479;28;20449;-62
2022/09/11 04:26:42;;;;;;;3.08;2.60;;;18.10;93.60;;;;;;10440673;28;20079;-63
2022/09/11 04:31:44;;;;;;;2.67;2.45;;;18.10;93.60;;;;;;10440744;28;20040;-63
2022/09/11 04:36:44;;;;;;;2.95;2.17;;;18.10;93.60;;;;;;10442317;28;20487;-63
2022/09/11 04:41:45;;;;;;;2.83;2.15;;;18.10;93.60;;;;;;10443650;28;20033;-63
2022/09/11 04:46:47;;;;;;;2.55;2.08;;;18.10;93.60;;;;;;10439743;28;20029;-62
2022/09/11 04:51:48;;;;;;;2.65;2.20;;;18.00;93.50;;;;;;10441087;28;20044;-65
2022/09/11 04:56:49;;;;;;;2.85;2.17;;;18.00;93.50;;;;;;10447065;28;20032;-63
2022/09/11 05:01:51;;;;;;;1.83;1.67;;;18.00;93.50;;;;;;10449035;28;20029;-64
2022/09/11 05:06:52;;;;;;;2.00;1.80;;;18.00;93.40;;;;;;10447007;28;20036;-63
2022/09/11 05:11:53;;;;;;;2.00;1.67;;;18.00;93.40;;;;;;10446188;28;20481;-63
2022/09/11 05:16:54;;;;;;;2.33;1.98;;;17.90;93.40;;;;;;10448828;28;20040;-62
2022/09/11 05:21:54;;;;;;;1.80;1.70;;;17.90;93.40;;;;;;10445822;28;20393;-68
2022/09/11 05:26:56;;;;;;;2.20;1.70;;;17.90;93.30;;;;;;10391927;28;20191;-63
2022/09/11 05:31:57;;;;;;;2.25;1.50;;;17.90;93.30;;;;;;10366148;28;20432;-63
2022/09/11 05:36:58;;;;;;;1.65;1.30;;;17.90;93.30;;;;;;10369287;28;20036;-70
2022/09/11 05:41:59;;;;;;;1.63;1.52;;;17.90;93.30;;;;;;10369745;28;20526;-71
2022/09/11 05:47:00;;;;;;;1.90;1.20;;;17.90;93.30;;;;;;10369755;28;20419;-63
2022/09/11 05:52:01;;;;;;;1.85;1.30;;;17.90;93.20;;;;;;10370752;28;20040;-64
2022/09/11 05:57:02;;;;;;;1.52;1.33;;;17.80;93.10;;;;;;10374350;28;20148;-68
2022/09/11 06:02:02;;;;;;;2.03;1.40;;;17.80;93.10;;;;;;10369634;28;20095;-63
2022/09/11 06:07:03;;;;;;;2.85;1.30;;;17.80;93.10;;;;;;10369525;28;20568;-63
2022/09/11 06:12:04;;;;;;;1.80;0.90;;;17.80;93.10;;;;;;10368075;28;20555;-63
2022/09/11 06:17:05;;;;;;;1.13;1.00;;;17.80;93.10;;;;;;10368308;28;20382;-66
2022/09/11 06:22:05;;;;;;;0.93;0.85;;;17.90;93.10;;;;;;10362103;28;20553;-63
2022/09/11 06:27:06;;;;;;;0.80;0.80;;;17.80;93.00;;;;;;10372540;28;20297;-63
2022/09/11 06:32:07;;;;;;;1.00;0.90;;;17.80;93.00;;;;;;10372438;28;20037;-63
2022/09/11 06:37:08;;;;;;;2.20;1.17;;;17.80;93.00;;;;;;10365213;28;20029;-65
2022/09/11 06:42:09;;;;;;;1.10;1.00;;;17.80;93.00;;;;;;10365754;28;20349;-63
2022/09/11 06:47:10;;;;;;;1.48;0.90;;;17.90;93.00;;;;;;10367774;28;21105;-63
2022/09/11 06:52:11;;;;;;;0.75;0.70;;;17.90;93.00;;;;;;10366693;28;20556;-63
2022/09/11 06:57:11;;;;;;;1.95;1.17;;;17.90;93.00;;;;;;10389400;22;20057;-65
2022/09/11 07:02:12;;;;;;;1.20;0.90;;;17.90;93.00;;;;;;10323752;28;20045;-63
2022/09/11 07:07:13;;;;;;;1.13;0.98;;;18.00;93.00;;;;;;10326331;28;20029;-70
2022/09/11 07:12:14;;;;;;;1.10;1.00;;;18.00;93.00;;;;;;10321225;28;20033;-63
2022/09/11 07:17:14;;;;;;;1.48;1.08;;;18.00;92.90;;;;;;10322532;28;20022;-62
2022/09/11 07:22:15;;;;;;;1.20;1.10;;;18.10;93.00;;;;;;10323072;28;20195;-63
2022/09/11 07:27:18;;;;;;;1.45;1.13;;;18.10;92.90;;;;;;10321626;28;20033;-63
2022/09/11 07:32:19;;;;;;;1.25;1.10;;;18.10;92.90;;;;;;10321356;28;20045;-66
2022/09/11 07:37:19;;;;;;;2.00;1.25;;;18.20;93.00;;;;;;10325001;28;20587;-66
2022/09/11 07:42:20;;;;;;;1.20;1.00;;;18.40;93.00;;;;;;10322003;28;20029;-65
2022/09/11 07:47:21;;;;;;;1.10;0.93;;;18.30;93.00;;;;;;10320421;28;20475;-64
2022/09/11 07:52:21;;;;;;;1.40;1.30;;;18.10;92.90;;;;;;10320159;28;20511;-65
2022/09/11 07:57:23;;;;;;;1.20;1.10;;;18.40;92.90;;;;;;10320127;28;20349;-63
2022/09/11 08:02:23;;;;;;;1.92;1.02;;;18.40;92.90;;;;;;10310959;28;20444;-63
2022/09/11 08:07:25;;;;;;;2.63;1.08;;;18.50;92.90;;;;;;10318640;28;20144;-63
2022/09/11 08:12:25;;;;;;;1.40;1.05;;;18.60;92.90;;;;;;10321980;28;20125;-63
2022/09/11 08:17:26;;;;;;;2.00;1.20;;;18.60;92.90;;;;;;10317518;28;20132;-63
2022/09/11 08:22:27;;;;;;;1.60;1.10;;;18.60;92.90;;;;;;10319540;28;20052;-65
2022/09/11 08:27:28;;;;;;;1.40;1.10;;;18.70;92.90;;;;;;10313881;28;20400;-63
2022/09/11 08:32:29;;;;;;;1.88;1.02;;;18.70;92.90;;;;;;10314963;28;20513;-63
2022/09/11 08:37:29;;;;;;;2.28;1.30;;;18.70;92.90;;;;;;10316365;28;20519;-66
2022/09/11 08:42:30;;;;;;;2.10;1.17;;;18.70;92.90;;;;;;10314624;28;20033;-64
2022/09/11 08:47:35;;;;;;;1.17;1.08;;;18.80;92.90;;;;;;10314156;28;20398;-65
2022/09/11 08:52:36;;;;;;;1.65;1.10;;;18.80;92.90;;;;;;10315318;28;20041;-64
2022/09/11 08:57:54;;;;;;;1.48;1.10;;;18.90;92.80;;;;;;10318697;28;20041;-63
2022/09/11 09:03:16;;;;;;;1.58;1.00;;;19.00;92.80;;;;;;10320045;28;20312;-65
2022/09/11 09:08:29;;;;;;;1.48;1.10;;;19.00;92.80;;;;;;10314099;28;20033;-64
2022/09/11 09:14:08;;;;;;;2.20;1.17;;;19.00;92.80;;;;;;10317316;28;20421;-64
2022/09/11 09:19:14;;;;;;;1.38;0.98;;;19.10;92.80;;;;;;10314856;28;20057;-66
2022/09/11 09:24:18;;;;;;;1.20;1.02;;;19.10;92.70;;;;;;10319526;28;20123;-64
2022/09/11 09:29:24;;;;;;;1.45;1.08;;;19.20;92.60;;;;;;10310663;28;20036;-63
2022/09/11 09:34:33;;;;;;;1.85;1.60;;;19.20;92.60;;;;;;10303651;28;20332;-63
2022/09/11 09:39:37;;;;;;;3.40;1.33;;;19.20;92.80;;;;;;10313066;28;20064;-63
2022/09/11 09:44:57;;;;;;;1.38;1.25;;;19.30;92.80;;;;;;10322345;28;20080;-63
2022/09/11 09:49:58;;;;;;;2.03;1.30;;;19.30;92.80;;;;;;10323464;28;20494;-63
2022/09/11 09:55:02;;;;;;;1.70;1.60;;;19.30;92.70;;;;;;10318952;28;20569;-63
2022/09/11 10:00:09;;;;;;;1.40;1.20;;;19.30;92.70;;;;;;10320239;28;20533;-66
2022/09/11 10:05:28;;;;;;;1.95;1.67;;;19.40;92.70;;;;;;10318599;28;20419;-63
2022/09/11 10:10:36;;;;;;;3.40;1.38;;;19.40;92.70;;;;;;10322114;28;20549;-62
2022/09/11 10:15:38;;;;;;;;;;;19.50;92.70;;;;;;10323053;28;20489;-64
2022/09/11 10:20:39;;;;;;;1.40;1.27;;;19.40;92.80;;;;;;10320000;28;19913;-63
2022/09/11 10:25:48;;;;;;;1.55;1.45;;;19.40;92.70;;;;;;10321086;28;20270;-64
2022/09/11 10:31:01;;;;;;;2.03;1.50;;;19.40;92.70;;;;;;10322362;28;20750;-63
2022/09/11 10:36:04;;;;;;;1.20;1.10;;;19.30;92.80;;;;;;10321925;28;20087;-62
2022/09/11 10:41:13;;;;;;;1.40;1.30;;;19.40;92.80;;;;;;10323136;28;20026;-63
2022/09/11 10:46:17;;;;;;;2.58;1.25;;;19.50;92.70;;;;;;10323603;28;20033;-63
2022/09/11 10:51:18;;;;;;;2.13;1.67;;;19.60;92.60;;;;;;10325569;28;20045;-63
2022/09/11 10:56:19;;;;;;;1.48;1.38;;;19.70;92.60;;;;;;10320321;28;20152;-63
2022/09/11 11:01:20;;;;;;;2.00;1.67;;;19.80;92.50;;;;;;10321873;28;20045;-63
2022/09/11 11:06:42;;;;;;;3.78;2.47;;;19.90;92.40;;;;;;10318479;28;20068;-64
2022/09/11 11:12:08;;;;;;;1.77;1.50;;;20.00;92.40;;;;;;10317840;28;20292;-64
2022/09/11 11:17:34;;;;;;;3.88;1.70;;;20.10;92.30;;;;;;10321257;28;20053;-63
2022/09/11 11:22:57;;;;;;;4.53;1.67;;;20.10;92.60;;;;;;10320129;28;20036;-64
2022/09/11 11:28:05;;;;;;;9.95;1.80;;;20.20;92.30;;;;;;10323487;28;20395;-62
2022/09/11 11:33:15;;;;;;;;;;;20.20;92.20;;;;;;10319590;28;20953;-63
2022/09/11 11:38:45;;;;;;;3.50;1.70;;;20.30;92.10;;;;;;10319355;28;20423;-63
2022/09/11 11:43:48;;;;;;;2.20;1.52;;;20.30;92.10;;;;;;10316206;28;20033;-64
2022/09/11 11:49:31;;;;;;;3.38;1.60;;;20.30;92.00;;;;;;10318504;28;20022;-63
2022/09/11 11:54:44;;;;;;;3.17;1.60;;;20.40;92.00;;;;;;10316850;28;20357;-62
2022/09/11 11:59:53;;;;;;;3.78;1.38;;;20.50;92.00;;;;;;10319562;28;20049;-62
2022/09/11 12:05:04;;;;;;;3.05;1.55;;;20.50;91.90;;;;;;10317309;28;20525;-63
2022/09/11 12:10:06;;;;;;;2.13;1.50;;;20.60;92.00;;;;;;10322322;28;20030;-63
2022/09/11 12:15:30;;;;;;;2.10;1.70;;;20.60;92.00;;;;;;10316795;28;20551;-62
2022/09/11 12:20:39;;;;;;;3.42;2.30;;;20.70;92.00;;;;;;10314783;28;20033;-61
2022/09/11 12:26:01;;;;;;;3.22;1.80;;;20.80;92.00;;;;;;10313460;28;20040;-60
2022/09/11 12:31:05;;;;;;;2.10;1.58;;;20.90;92.00;;;;;;10312876;28;20041;-60
2022/09/11 12:36:23;;;;;;;1.85;1.50;;;20.90;92.00;;;;;;10314227;28;20054;-61
2022/09/11 12:41:33;;;;;;;1.80;1.60;;;20.90;91.90;;;;;;10316945;28;20037;-60
2022/09/11 12:46:35;;;;;;;2.92;1.52;;;20.90;91.90;;;;;;10314180;28;20033;-60
2022/09/11 12:51:44;;;;;;;1.58;1.40;;;21.00;91.90;;;;;;10310912;28;20410;-60
2022/09/11 12:56:48;;;;;;;2.53;1.55;;;21.10;91.70;;;;;;10314175;28;20160;-61
2022/09/11 13:01:50;;;;;;;1.90;1.50;;;21.10;91.70;;;;;;10315295;28;20036;-62
2022/09/11 13:07:02;;;;;;;1.77;1.33;;;21.10;91.60;;;;;;10310468;28;20036;-62
2022/09/11 13:12:22;;;;;;;1.67;1.50;;;21.10;91.60;;;;;;10315153;28;20159;-61
2022/09/11 13:17:31;;;;;;;1.65;1.40;;;21.10;91.70;;;;;;10318039;28;20025;-61
2022/09/11 13:22:33;;;;;;;1.92;1.48;;;21.20;91.90;;;;;;10319321;28;20098;-60
2022/09/11 13:27:36;;;;;;;1.83;1.58;;;21.20;91.80;;;;;;10321555;28;20071;-60
2022/09/11 13:32:37;;;;;;;1.83;1.63;;;21.20;92.00;;;;;;10316475;28;20151;-60
2022/09/11 13:37:44;;;;;;;1.58;1.40;;;21.40;92.10;;;;;;10313992;28;20887;-60
2022/09/11 13:42:45;;;;;;;1.30;1.20;;;21.50;92.10;;;;;;10315397;28;20240;-59
2022/09/11 13:47:46;;;;;;;1.98;1.58;;;21.60;91.70;;;;;;10320762;28;20361;-59
2022/09/11 13:52:48;;;;;;;2.65;1.60;;;21.60;91.80;;;;;;10321895;28;20662;-59
2022/09/11 13:58:39;;;;;;;1.48;1.33;;;21.80;91.50;;;;;;10320445;28;20057;-60
2022/09/11 14:03:45;;;;;;;2.42;1.67;;;21.90;91.70;;;;;;10309049;28;20049;-60
2022/09/11 14:08:51;;;;;;;2.33;1.63;;;22.00;91.40;;;;;;10322282;28;20198;-60
2022/09/11 14:13:58;;;;;;;2.33;1.63;;;22.10;91.30;;;;;;10321299;28;20526;-62
2022/09/11 14:19:32;;;;;;;2.97;1.67;;;22.30;91.30;;;;;;10318087;28;20025;-62
2022/09/11 14:24:36;;;;;;;1.60;1.50;;;22.40;90.90;;;;;;10310231;28;20069;-62
2022/09/11 14:29:36;;;;;;;2.58;1.60;;;22.50;91.00;;;;;;10314490;28;20056;-62
2022/09/11 14:34:37;;;;;;;1.40;1.30;;;22.60;90.90;;;;;;10314808;28;20046;-60
2022/09/11 14:39:58;;;;;;;1.33;1.23;;;22.70;90.80;;;;;;10302134;28;20026;-61
2022/09/11 14:45:07;;;;;;;2.10;1.50;;;22.90;90.80;;;;;;10320690;28;20438;-59
2022/09/11 14:50:11;;;;;;;2.88;1.50;;;23.00;90.50;;;;;;10311036;28;20926;-59
2022/09/11 14:55:16;;;;;;;1.65;1.10;;;23.10;90.70;;;;;;10310063;28;20362;-60
2022/09/11 15:00:18;;;;;;;2.38;1.30;;;23.30;90.50;;;;;;10315727;28;20591;-59
2022/09/11 15:05:21;;;;;;;1.85;1.75;;;23.40;90.40;;;;;;10308952;28;20237;-59
2022/09/11 15:10:22;;;;;;;2.28;1.35;;;23.50;90.30;;;;;;10312018;28;20065;-59
2022/09/11 15:15:23;;;;;;;1.17;1.08;;;23.60;90.20;;;;;;10301745;28;20470;-61
2022/09/11 15:20:26;;;;;;;1.50;1.30;;;23.60;90.20;;;;;;10315783;28;20144;-60
2022/09/11 15:25:27;;;;;;;1.75;1.35;;;23.60;90.20;;;;;;10316276;28;20036;-59
2022/09/11 15:30:28;;;;;;;1.67;1.30;;;23.60;90.40;;;;;;10312631;28;20022;-60
2022/09/11 15:35:28;;;;;;;2.03;1.33;;;23.60;90.30;;;;;;10317352;28;20107;-60
2022/09/11 15:40:31;;;;;;;1.45;1.20;;;23.80;90.20;;;;;;10312512;28;20228;-64
2022/09/11 15:45:32;;;;;;;2.92;1.50;;;23.80;89.90;;;;;;10313969;28;20488;-59
2022/09/11 15:50:33;;;;;;;1.33;1.10;;;23.80;89.80;;;;;;10313709;28;20109;-60
2022/09/11 15:55:34;;;;;;;2.40;1.30;;;23.70;90.00;;;;;;10312445;28;20467;-59
2022/09/11 16:00:35;;;;;;;2.17;1.30;;;23.60;90.20;;;;;;10311388;28;20038;-60
2022/09/11 16:05:41;;;;;;;2.38;1.45;;;23.50;90.20;;;;;;10310665;28;20022;-60
2022/09/11 16:10:41;;;;;;;3.03;1.33;;;23.40;90.30;;;;;;10309593;28;20491;-60
2022/09/11 16:15:42;;;;;;;1.75;1.30;;;23.40;90.40;;;;;;10308903;28;20892;-60
2022/09/11 16:20:43;;;;;;;1.63;1.52;;;23.30;90.30;;;;;;10310289;28;20036;-59
2022/09/11 16:25:44;;;;;;;2.65;1.40;;;23.20;90.50;;;;;;10309311;28;20227;-59
2022/09/11 16:30:44;;;;;;;3.67;1.55;;;23.20;90.60;;;;;;10309845;28;20048;-66
2022/09/11 16:36:00;;;;;;;2.83;1.30;;;23.20;90.50;;;;;;10307321;28;20045;-61
2022/09/11 16:41:08;;;;;;;3.20;1.58;;;23.10;90.50;;;;;;10308323;28;20089;-64
2022/09/11 16:46:11;;;;;;;2.75;1.65;;;23.00;90.60;;;;;;10305215;28;20461;-61
2022/09/11 16:51:13;;;;;;;1.63;1.33;;;23.00;90.60;;;;;;10313043;28;20536;-65
2022/09/11 16:56:19;;;;;;;2.00;1.50;;;22.90;90.70;;;;;;10321452;28;20049;-61
2022/09/11 17:01:23;;;;;;;2.38;1.58;;;22.90;90.60;;;;;;10325331;28;20800;-62
2022/09/11 17:06:29;;;;;;;4.05;1.80;;;22.80;90.80;;;;;;10326125;28;20045;-61
2022/09/11 17:11:31;;;;;;;3.47;1.45;;;22.80;90.90;;;;;;10298390;28;20680;-61
2022/09/11 17:16:34;;;;;;;5.03;1.90;;;22.70;90.90;;;;;;10316792;28;20136;-61
2022/09/11 17:21:36;;;;;;;2.20;1.90;;;22.70;91.10;;;;;;10318080;28;20113;-62
2022/09/11 17:26:37;;;;;;;3.05;1.70;;;22.60;91.10;;;;;;10321532;28;20029;-61
2022/09/11 17:31:38;;;;;;;2.20;1.48;;;22.60;91.20;;;;;;10318849;28;20429;-61
2022/09/11 17:36:39;;;;;;;2.88;1.80;;;22.60;91.20;;;;;;10318357;28;20298;-63
2022/09/11 17:41:40;;;;;;;1.70;1.60;;;22.50;91.30;;;;;;10307893;28;20622;-64
2022/09/11 17:46:41;;;;;;;5.00;1.50;;;22.50;91.30;;;;;;10307762;28;20551;-63
2022/09/11 17:52:15;;;;;;;3.03;2.00;;;22.50;91.40;;;;;;10317308;28;20038;-74
2022/09/11 17:57:16;;;;;;;2.95;1.70;;;22.40;91.50;;;;;;10301053;28;20341;-62
2022/09/11 18:02:18;;;;;;;4.50;1.75;;;22.10;91.60;;;;;;10315154;28;20438;-64
2022/09/11 18:07:19;;;;;;;3.97;1.63;;;21.90;91.90;;;;;;10313679;28;20029;-65
2022/09/11 18:12:20;;;;;;;2.72;1.67;;;21.80;92.10;;;;;;10311233;28;20163;-64
2022/09/11 18:17:21;;;;;;;4.78;1.98;;;21.80;92.10;;;;;;10302797;28;20034;-64
2022/09/11 18:22:22;;;;;;;4.35;2.42;;;21.80;92.10;;;;;;10306141;28;20806;-64
2022/09/11 18:27:23;;;;;;;3.03;1.90;;;21.80;92.00;;;;;;10373446;28;20022;-63
2022/09/11 18:32:25;;;;;;;3.17;1.83;;;21.80;92.00;;;;;;10396557;28;20099;-64
2022/09/11 18:37:25;;;;;;;2.63;1.67;;;21.80;92.00;;;;;;10396996;28;20493;-64
2022/09/11 18:42:26;;;;;;;2.78;1.60;;;21.80;92.00;;;;;;10400043;28;20034;-64
2022/09/11 18:47:29;;;;;;;1.70;1.60;;;21.80;92.10;;;;;;10397434;28;20515;-63
2022/09/11 18:52:30;;;;;;;2.10;1.77;;;21.80;92.10;;;;;;10398940;28;20050;-63
2022/09/11 18:57:32;;;;;;;2.40;2.08;;;21.80;92.10;;;;;;10398581;28;20050;-64
2022/09/11 19:02:35;;;;;;;2.78;1.92;;;21.70;92.10;;;;;;10395295;28;20052;-64
2022/09/11 19:07:36;;;;;;;2.75;1.90;;;21.70;92.10;;;;;;10392508;28;20041;-64
2022/09/11 19:12:39;;;;;;;2.20;1.65;;;21.70;92.20;;;;;;10392734;28;20064;-63
2022/09/11 19:17:39;;;;;;;2.10;1.88;;;21.60;92.20;;;;;;10395072;28;20021;-64
2022/09/11 19:22:40;;;;;;;2.28;1.92;;;21.60;92.20;;;;;;10389303;28;20033;-65
2022/09/11 19:27:41;;;;;;;3.78;2.10;;;21.60;92.30;;;;;;10385735;28;20036;-65
2022/09/11 19:32:41;;;;;;;2.03;1.67;;;21.50;92.30;;;;;;10393574;28;20048;-65
2022/09/11 19:37:42;;;;;;;3.08;2.78;;;21.50;92.30;;;;;;10391783;28;20572;-66
2022/09/11 19:42:43;;;;;;;3.75;2.10;;;21.50;92.30;;;;;;10396273;28;20034;-65
2022/09/11 19:47:43;;;;;;;2.67;1.90;;;21.40;92.40;;;;;;10396629;28;20037;-64
2022/09/11 19:52:44;;;;;;;1.85;1.73;;;21.40;92.40;;;;;;10394671;28;20052;-65
2022/09/11 19:57:45;;;;;;;3.08;1.85;;;21.40;92.40;;;;;;10391261;28;20053;-65
2022/09/11 20:02:46;;;;;;;2.22;1.83;;;21.30;92.50;;;;;;10396180;28;20040;-65
2022/09/11 20:07:46;;;;;;;2.10;1.75;;;21.30;92.50;;;;;;10398158;28;20033;-66
2022/09/11 20:12:48;;;;;;;2.13;1.80;;;21.20;92.80;;;;;;10390898;28;20104;-65
2022/09/11 20:17:48;;;;;;;2.75;1.83;;;21.20;92.60;;;;;;10393580;28;20033;-65
2022/09/11 20:22:49;;;;;;;2.15;1.95;;;21.20;92.60;;;;;;10393594;28;20433;-64
2022/09/11 20:27:50;;;;;;;2.83;2.00;;;21.20;92.60;;;;;;10390564;28;20160;-65
2022/09/11 20:32:50;;;;;;;3.03;1.98;;;21.10;92.60;;;;;;10392824;28;20059;-65
2022/09/11 20:37:52;;;;;;;2.22;1.88;;;21.10;92.60;;;;;;10389274;28;20026;-65
2022/09/11 20:42:52;;;;;;;2.55;2.10;;;21.10;92.70;;;;;;10421376;22;20080;-64
2022/09/11 20:47:53;;;;;;;2.38;1.90;;;21.00;92.70;;;;;;10390940;28;20167;-65
2022/09/11 20:52:54;;;;;;;2.10;1.90;;;21.00;92.70;;;;;;10369625;28;20121;-64
2022/09/11 20:57:55;;;;;;;3.10;2.00;;;21.00;92.70;;;;;;10393636;28;20038;-65
2022/09/11 21:02:56;;;;;;;2.65;1.75;;;20.90;92.70;;;;;;10383321;28;20464;-65
2022/09/11 21:07:56;;;;;;;2.08;1.70;;;20.90;92.70;;;;;;10387270;28;20095;-64
2022/09/11 21:12:57;;;;;;;2.67;2.10;;;20.90;92.70;;;;;;10392845;28;20556;-64
2022/09/11 21:17:58;;;;;;;2.47;1.90;;;20.80;92.70;;;;;;10391888;28;20029;-64
2022/09/11 21:22:58;;;;;;;1.90;1.70;;;20.80;92.70;;;;;;10389584;28;20033;-64
2022/09/11 21:27:59;;;;;;;2.05;1.80;;;20.80;92.80;;;;;;10351202;28;20075;-65
2022/09/11 21:33:00;;;;;;;2.38;1.83;;;20.80;92.80;;;;;;10391226;28;20141;-64
2022/09/11 21:38:00;;;;;;;2.30;1.90;;;20.70;92.70;;;;;;10395487;28;20129;-64
2022/09/11 21:43:01;;;;;;;3.78;1.83;;;20.70;92.80;;;;;;10401291;28;20051;-64
2022/09/11 21:48:04;;;;;;;2.47;1.85;;;20.60;92.80;;;;;;10401253;28;20432;-64
2022/09/11 21:53:05;;;;;;;2.60;1.83;;;20.60;92.80;;;;;;10400097;28;20386;-65
2022/09/11 21:58:07;;;;;;;2.10;1.80;;;20.60;92.80;;;;;;10401286;28;20032;-64
2022/09/11 22:03:09;;;;;;;1.88;1.60;;;20.60;92.80;;;;;;10398395;28;20108;-64
2022/09/11 22:08:10;;;;;;;2.03;1.80;;;20.50;92.80;;;;;;10401024;28;20033;-64
2022/09/11 22:13:11;;;;;;;2.30;1.73;;;20.50;92.80;;;;;;10397817;28;20124;-64
2022/09/11 22:18:13;;;;;;;1.80;1.70;;;20.40;92.80;;;;;;10401471;28;20017;-64
2022/09/11 22:23:17;;;;;;;2.10;1.73;;;20.40;92.80;;;;;;10400688;28;20045;-64
2022/09/11 22:28:17;;;;;;;2.83;2.20;;;20.40;92.80;;;;;;10398175;28;20028;-64
2022/09/11 22:33:18;;;;;;;3.45;2.10;;;20.30;92.80;;;;;;10399104;28;20492;-64
2022/09/11 22:38:19;;;;;;;2.60;1.88;;;20.30;92.80;;;;;;10397644;28;20118;-64
2022/09/11 22:43:19;;;;;;;2.35;1.90;;;20.30;92.90;;;;;;10399746;28;20060;-64
2022/09/11 22:48:20;;;;;;;2.33;2.13;;;20.30;92.90;;;;;;10403328;22;20117;-64
2022/09/11 22:53:25;;;;;;;3.25;2.22;;;20.20;92.80;;;;;;10481940;28;20036;-65
2022/09/11 22:58:27;;;;;;;3.20;2.28;;;20.20;92.80;;;;;;10484751;28;20137;-65
2022/09/11 23:03:29;;;;;;;3.47;2.15;;;20.20;92.80;;;;;;10478119;28;20033;-64
2022/09/11 23:08:33;;;;;;;2.33;2.10;;;20.20;92.80;;;;;;10477881;28;20017;-64
2022/09/11 23:13:34;;;;;;;3.00;2.70;;;20.10;92.80;;;;;;10479979;28;20032;-64
2022/09/11 23:18:35;;;;;;;2.50;2.30;;;20.10;92.80;;;;;;10477531;28;20535;-65
2022/09/11 23:23:39;;;;;;;2.70;2.35;;;20.10;92.80;;;;;;10479808;28;20040;-64
2022/09/11 23:28:41;;;;;;;4.13;2.45;;;20.00;92.80;;;;;;10479743;28;20032;-65
2022/09/11 23:33:42;;;;;;;2.83;2.28;;;20.00;92.80;;;;;;10476606;28;20568;-65
2022/09/11 23:38:43;;;;;;;3.78;2.60;;;20.00;92.80;;;;;;10474276;28;20032;-64
2022/09/11 23:43:44;;;;;;;3.30;2.65;;;20.00;92.80;;;;;;10481800;28;20070;-64
2022/09/11 23:48:45;;;;;;;3.42;2.40;;;20.00;92.80;;;;;;10475717;28;20056;-65
2022/09/11 23:53:48;;;;;;;3.28;2.58;;;19.90;92.70;;;;;;10477023;28;20041;-64
2022/09/11 23:58:49;;;;;;;3.15;2.55;;;19.90;93.00;;;;;;10477219;28;20053;-65
